Ofertas de vuelos a Natal

Encontranos en
En el mes de
SalidaRegresoDíasConexionesDisp.
Jue 14/05/20202020-05-14Jue 21/05/20202020-05-217ConexionesVer disponibilidad>05https://an.despegar.com/ad/1040?q=shop%2Fflights%2Fresults%2Froundtrip%2FBUE%2FNAT%2F2020-05-14%2F2020-05-21%2F1%2F0%2F0
Dom 24/05/20202020-05-24Dom 31/05/20202020-05-317ConexionesVer disponibilidad>05https://an.despegar.com/ad/1040?q=shop%2Fflights%2Fresults%2Froundtrip%2FBUE%2FNAT%2F2020-05-24%2F2020-05-31%2F1%2F0%2F0
Vie 29/05/20202020-05-29Vie 05/06/20202020-06-057ConexionesVer disponibilidad>05https://an.despegar.com/ad/1040?q=shop%2Fflights%2Fresults%2Froundtrip%2FBUE%2FNAT%2F2020-05-29%2F2020-06-05%2F1%2F0%2F0
Lun 08/06/20202020-06-08Lun 15/06/20202020-06-157ConexionesVer disponibilidad>06https://an.despegar.com/ad/1040?q=shop%2Fflights%2Fresults%2Froundtrip%2FBUE%2FNAT%2F2020-06-08%2F2020-06-15%2F1%2F0%2F0
Sab 13/06/20202020-06-13Sab 20/06/20202020-06-207ConexionesVer disponibilidad>06https://an.despegar.com/ad/1040?q=shop%2Fflights%2Fresults%2Froundtrip%2FBUE%2FNAT%2F2020-06-13%2F2020-06-20%2F1%2F0%2F0
Mar 23/06/20202020-06-23Mar 30/06/20202020-06-307ConexionesVer disponibilidad>06https://an.despegar.com/ad/1040?q=shop%2Fflights%2Fresults%2Froundtrip%2FBUE%2FNAT%2F2020-06-23%2F2020-06-30%2F1%2F0%2F0
Dom 28/06/20202020-06-28Dom 05/07/20202020-07-057ConexionesVer disponibilidad>06https://an.despegar.com/ad/1040?q=shop%2Fflights%2Fresults%2Froundtrip%2FBUE%2FNAT%2F2020-06-28%2F2020-07-05%2F1%2F0%2F0
Sab 01/08/20202020-08-01Sab 08/08/20202020-08-087ConexionesVer disponibilidad>08https://an.despegar.com/ad/1040?q=shop%2Fflights%2Fresults%2Froundtrip%2FBUE%2FNAT%2F2020-08-01%2F2020-08-08%2F1%2F0%2F0
Lun 17/08/20202020-08-17Jue 27/08/20202020-08-2710ConexionesVer disponibilidad>08https://an.despegar.com/ad/1040?q=shop%2Fflights%2Fresults%2Froundtrip%2FBUE%2FNAT%2F2020-08-17%2F2020-08-27%2F1%2F0%2F0
Sab 29/08/20202020-08-29Dom 06/09/20202020-09-068ConexionesVer disponibilidad>08https://an.despegar.com/ad/1040?q=shop%2Fflights%2Fresults%2Froundtrip%2FBUE%2FNAT%2F2020-08-29%2F2020-09-06%2F1%2F0%2F0
Dom 13/09/20202020-09-13Dom 20/09/20202020-09-207ConexionesVer disponibilidad>09https://an.despegar.com/ad/1040?q=shop%2Fflights%2Fresults%2Froundtrip%2FBUE%2FNAT%2F2020-09-13%2F2020-09-20%2F1%2F0%2F0
Mar 15/09/20202020-09-15Mar 22/09/20202020-09-227ConexionesVer disponibilidad>09https://an.despegar.com/ad/1040?q=shop%2Fflights%2Fresults%2Froundtrip%2FBUE%2FNAT%2F2020-09-15%2F2020-09-22%2F1%2F0%2F0
Lun 02/11/20202020-11-02Lun 16/11/20202020-11-1614ConexionesVer disponibilidad>11https://an.despegar.com/ad/1040?q=shop%2Fflights%2Fresults%2Froundtrip%2FBUE%2FNAT%2F2020-11-02%2F2020-11-16%2F1%2F0%2F0
Sab 07/11/20202020-11-07Mar 17/11/20202020-11-1710ConexionesVer disponibilidad>11https://an.despegar.com/ad/1040?q=shop%2Fflights%2Fresults%2Froundtrip%2FBUE%2FNAT%2F2020-11-07%2F2020-11-17%2F1%2F0%2F0
Sab 07/11/20202020-11-07Lun 16/11/20202020-11-169ConexionesVer disponibilidad>11https://an.despegar.com/ad/1040?q=shop%2Fflights%2Fresults%2Froundtrip%2FBUE%2FNAT%2F2020-11-07%2F2020-11-16%2F1%2F0%2F0
Sab 07/11/20202020-11-07Dom 15/11/20202020-11-158ConexionesVer disponibilidad>11https://an.despegar.com/ad/1040?q=shop%2Fflights%2Fresults%2Froundtrip%2FBUE%2FNAT%2F2020-11-07%2F2020-11-15%2F1%2F0%2F0
Lun 09/11/20202020-11-09Mar 24/11/20202020-11-2415ConexionesVer disponibilidad>11https://an.despegar.com/ad/1040?q=shop%2Fflights%2Fresults%2Froundtrip%2FBUE%2FNAT%2F2020-11-09%2F2020-11-24%2F1%2F0%2F0
Vie 13/11/20202020-11-13Lun 23/11/20202020-11-2310ConexionesVer disponibilidad>11https://an.despegar.com/ad/1040?q=shop%2Fflights%2Fresults%2Froundtrip%2FBUE%2FNAT%2F2020-11-13%2F2020-11-23%2F1%2F0%2F0
Dom 22/11/20202020-11-22Dom 29/11/20202020-11-297ConexionesVer disponibilidad>11https://an.despegar.com/ad/1040?q=shop%2Fflights%2Fresults%2Froundtrip%2FBUE%2FNAT%2F2020-11-22%2F2020-11-29%2F1%2F0%2F0
Sab 19/12/20202020-12-19Dom 27/12/20202020-12-278ConexionesVer disponibilidad>12https://an.despegar.com/ad/1040?q=shop%2Fflights%2Fresults%2Froundtrip%2FBUE%2FNAT%2F2020-12-19%2F2020-12-27%2F1%2F0%2F0
Sab 16/01/20212021-01-16Vie 29/01/20212021-01-2913ConexionesVer disponibilidad>01https://an.despegar.com/ad/1040?q=shop%2Fflights%2Fresults%2Froundtrip%2FBUE%2FNAT%2F2021-01-16%2F2021-01-29%2F1%2F0%2F0
Sab 16/01/20212021-01-16Lun 25/01/20212021-01-259ConexionesVer disponibilidad>01https://an.despegar.com/ad/1040?q=shop%2Fflights%2Fresults%2Froundtrip%2FBUE%2FNAT%2F2021-01-16%2F2021-01-25%2F1%2F0%2F0
Sab 16/01/20212021-01-16Dom 31/01/20212021-01-3115ConexionesVer disponibilidad>01https://an.despegar.com/ad/1040?q=shop%2Fflights%2Fresults%2Froundtrip%2FBUE%2FNAT%2F2021-01-16%2F2021-01-31%2F1%2F0%2F0
Mar 02/02/20212021-02-02Lun 08/02/20212021-02-086ConexionesVer disponibilidad>02https://an.despegar.com/ad/1040?q=shop%2Fflights%2Fresults%2Froundtrip%2FBUE%2FNAT%2F2021-02-02%2F2021-02-08%2F1%2F0%2F0

Información general sobre Natal

Natal, que en español significa Navidad, es una ciudad brasileña localizada en el estado de Rio Grande do Norte. Atravesada por el río Potengi, la capital nordestina cuenta con playas, dunas y diferentes atracciones históricas. Anualmente recibe a dos millones de turistas y es la puerta de entrada hacia otros importantes destinos del estado.

Pasajes Aéreos y Vuelos Baratos a Natal

Descargá gratis nuestra nueva app para Android y iOS.
Suscribite a las notificaciones de Chrome y Safari.
Seguinos en Facebook, Twitter e Instagram
Suscribite a nuestro newsletter aquí.